Time;durP1;ratioP1;P1;durP2;ratioP2;P2;SDS_P1;SDS_P2;PMS_P1;PMS_P2;Temp;Humidity;BMP_temperature;BMP_pressure;BME280_temperature;BME280_humidity;BME280_pressure;Samples;Min_cycle;Max_cycle;Signal;HPM_P1;HPM_P2
2022/02/06 00:01:14;;;;;;;12.03;7.07;;;;;;;-4.26;78.49;99593.34;5076448;28;20032;-64
2022/02/06 00:03:40;;;;;;;11.43;8.30;;;;;;;-4.23;77.61;99594.00;5059867;28;20028;-64
2022/02/06 00:06:07;;;;;;;13.10;8.80;;;;;;;-4.40;78.20;99560.41;5094475;28;20088;-68
2022/02/06 00:08:33;;;;;;;10.65;7.72;;;;;;;-4.16;78.19;99590.06;5094428;28;20551;-64
2022/02/06 00:10:58;;;;;;;8.70;6.60;;;;;;;-4.28;78.08;99592.63;5094392;28;20036;-67
2022/02/06 00:13:24;;;;;;;12.57;7.17;;;;;;;-4.31;77.72;99591.06;5094177;28;20061;-68
2022/02/06 00:15:49;;;;;;;9.57;6.77;;;;;;;-4.23;78.84;99588.78;5075509;28;20149;-66
2022/02/06 00:18:15;;;;;;;10.67;7.27;;;;;;;-4.18;77.52;99591.09;5093878;28;20031;-65
2022/02/06 00:20:51;;;;;;;12.93;7.73;;;;;;;-4.30;78.48;99579.72;5075854;28;20450;-66
2022/02/06 00:23:19;;;;;;;10.68;6.97;;;;;;;-4.23;78.79;99578.38;5094350;28;20494;-65
2022/02/06 00:25:57;;;;;;;10.68;7.40;;;;;;;-4.15;77.79;99578.72;5094099;28;20044;-66
2022/02/06 00:39:12;;;;;;;9.70;6.47;;;;;;;-4.00;78.07;99605.53;5094036;28;20127;-65
2022/02/06 00:41:24;;;;;;;10.55;6.70;;;;;;;-4.20;78.09;99552.19;5081277;28;20043;-65
2022/02/06 00:43:50;;;;;;;10.40;8.73;;;;;;;-3.96;77.42;99595.75;5096370;28;20038;-64
2022/02/06 00:46:17;;;;;;;12.43;7.70;;;;;;;-4.08;78.03;99587.78;5094391;28;20032;-65
2022/02/06 00:48:49;;;;;;;11.18;7.85;;;;;;;-4.13;78.58;99578.63;5093875;28;20042;-66
2022/02/06 00:51:27;;;;;;;12.27;7.95;;;;;;;-4.14;78.78;99580.38;5093445;28;20394;-65
2022/02/06 00:53:53;;;;;;;11.27;7.32;;;;;;;-4.14;78.99;99583.00;5075775;28;20482;-66
2022/02/06 00:56:18;;;;;;;10.93;7.17;;;;;;;-4.18;78.86;99573.72;5093372;28;20046;-66
2022/02/06 00:58:44;;;;;;;11.90;8.33;;;;;;;-4.24;78.96;99565.50;5093694;28;20487;-69
2022/02/06 01:01:11;;;;;;;11.80;8.48;;;;;;;-4.18;79.02;99570.28;5093593;28;20040;-68
2022/02/06 01:03:37;;;;;;;11.00;7.07;;;;;;;-4.16;78.62;99558.84;5093635;28;20040;-67
2022/02/06 01:06:06;;;;;;;11.67;7.53;;;;;;;-4.11;78.64;99567.19;5093152;28;20043;-66
2022/02/06 01:08:32;;;;;;;13.40;7.85;;;;;;;-4.01;79.02;99583.06;5093249;28;20050;-67
2022/02/06 01:11:00;;;;;;;12.68;7.63;;;;;;;-3.98;78.86;99587.22;5092789;28;20387;-65
2022/02/06 01:13:32;;;;;;;10.73;7.88;;;;;;;-3.95;78.17;99587.03;5093069;28;20040;-68
2022/02/06 01:16:04;;;;;;;12.07;7.75;;;;;;;-4.49;78.63;99503.84;5093226;28;20032;-68
2022/02/06 01:18:36;;;;;;;11.52;7.65;;;;;;;-3.91;78.14;99578.06;5075178;28;20240;-64
2022/02/06 01:21:09;;;;;;;12.50;7.50;;;;;;;-4.47;79.00;99494.19;5093129;28;20494;-67
2022/02/06 01:23:47;;;;;;;11.98;8.68;;;;;;;-3.86;79.40;99578.59;5093273;28;20505;-70
2022/02/06 01:26:39;;;;;;;8.70;7.20;;;;;;;-3.99;79.01;99562.16;5093105;28;20402;-66
2022/02/06 01:29:13;;;;;;;11.77;8.07;;;;;;;-3.90;79.21;99579.75;5092442;28;20100;-66
2022/02/06 01:34:06;;;;;;;10.50;7.82;;;;;;;-3.89;78.91;99565.81;5092397;28;20060;-66
2022/02/06 01:36:41;;;;;;;12.60;8.30;;;;;;;-4.17;79.06;99531.19;5092839;28;20053;-68
2022/02/06 01:41:40;;;;;;;10.35;7.47;;;;;;;-3.88;79.68;99572.66;5092805;28;20061;-69
2022/02/06 01:44:16;;;;;;;10.18;7.47;;;;;;;-3.84;80.14;99568.94;5092531;28;20047;-67
2022/02/06 02:02:59;;;;;;;11.95;8.02;;;;;;;-3.76;79.17;99574.47;5092710;28;20051;-67
2022/02/06 02:14:18;;;;;;;13.23;8.60;;;;;;;-3.85;78.93;99560.28;5091981;28;20039;-65
2022/02/06 02:43:17;;;;;;;13.48;9.90;;;;;;;-3.81;79.59;99525.34;5091672;28;20028;-66
2022/02/06 02:48:17;;;;;;;14.55;8.65;;;;;;;-3.69;79.96;99539.31;5091751;28;20402;-65
2022/02/06 02:50:48;;;;;;;12.05;8.40;;;;;;;-3.58;78.97;99543.78;5073608;28;20062;-66
2022/02/06 02:53:22;;;;;;;13.80;8.68;;;;;;;-3.56;78.49;99534.94;5091544;28;20039;-65
2022/02/06 03:01:05;;;;;;;11.32;7.20;;;;;;;-3.72;79.53;99536.91;5091434;28;20028;-67
2022/02/06 03:03:33;;;;;;;12.70;8.23;;;;;;;-3.75;79.14;99531.94;5091297;28;20044;-68
2022/02/06 03:06:01;;;;;;;13.52;9.70;;;;;;;-3.70;79.56;99535.03;5073577;28;20032;-64
2022/02/06 03:08:28;;;;;;;13.77;9.23;;;;;;;-3.62;78.94;99532.75;5091366;28;20044;-66
2022/02/06 03:10:56;;;;;;;13.13;9.30;;;;;;;-3.66;78.69;99528.69;5091559;28;20036;-65
2022/02/06 03:13:25;;;;;;;14.63;8.98;;;;;;;-3.87;79.36;99509.31;5091605;28;20036;-67
2022/02/06 03:18:28;;;;;;;19.02;13.02;;;;;;;-3.79;79.80;99510.47;5091135;28;20441;-63
2022/02/06 03:20:54;;;;;;;14.02;8.70;;;;;;;-3.77;79.42;99510.34;5091425;28;20043;-65
2022/02/06 03:23:20;;;;;;;16.33;10.02;;;;;;;-3.66;79.51;99526.09;5091752;28;20032;-68
2022/02/06 03:25:55;;;;;;;13.52;9.82;;;;;;;-3.64;79.01;99521.63;5075630;28;20586;-65
2022/02/06 03:28:24;;;;;;;13.10;10.25;;;;;;;-3.79;79.57;99504.41;5092787;28;20039;-66
2022/02/06 03:30:51;;;;;;;15.18;10.32;;;;;;;-3.80;79.65;99506.19;5091690;28;20403;-67
2022/02/06 03:33:19;;;;;;;13.95;9.05;;;;;;;-3.92;79.99;99503.59;5072799;28;20048;-65
2022/02/06 03:35:46;;;;;;;19.30;11.73;;;;;;;-3.84;80.09;99519.50;5091325;28;20048;-67
2022/02/06 03:38:12;;;;;;;14.10;10.10;;;;;;;-3.87;79.54;99497.13;5091470;28;20491;-65
2022/02/06 03:40:43;;;;;;;15.57;9.70;;;;;;;-3.88;79.81;99489.44;5091615;28;20119;-64
2022/02/06 03:43:16;;;;;;;15.23;10.13;;;;;;;-3.74;79.98;99515.38;5091249;28;20380;-66
2022/02/06 03:45:51;;;;;;;15.32;9.60;;;;;;;-3.67;79.72;99515.78;5091310;28;20040;-65
2022/02/06 03:48:23;;;;;;;14.90;10.10;;;;;;;-3.53;79.31;99513.91;5072875;28;20524;-68
2022/02/06 03:50:54;;;;;;;17.02;10.63;;;;;;;-3.58;79.16;99500.38;5092047;28;20070;-65
2022/02/06 03:53:24;;;;;;;13.82;8.90;;;;;;;-3.57;78.59;99515.06;5094784;28;20524;-66
2022/02/06 03:55:51;;;;;;;13.02;10.27;;;;;;;-3.67;78.92;99511.41;5095041;28;20085;-67
2022/02/06 03:58:17;;;;;;;13.43;10.02;;;;;;;-3.76;79.49;99512.03;5094848;28;20035;-63
2022/02/06 04:00:43;;;;;;;14.15;9.10;;;;;;;-3.82;79.55;99504.63;5094780;28;20222;-66
2022/02/06 04:03:09;;;;;;;14.88;9.43;;;;;;;-3.85;79.41;99494.44;5094583;28;20513;-67
2022/02/06 04:05:37;;;;;;;16.43;10.43;;;;;;;-3.81;79.04;99490.69;5094734;28;20079;-68
2022/02/06 04:08:02;;;;;;;13.27;8.93;;;;;;;-3.72;79.74;99510.91;5094512;28;20482;-66
2022/02/06 04:10:35;;;;;;;13.60;10.87;;;;;;;-3.76;79.82;99493.81;5094540;28;20127;-67
2022/02/06 04:13:02;;;;;;;17.40;9.80;;;;;;;-3.76;79.95;99493.81;5076449;28;20028;-64
2022/02/06 04:15:37;;;;;;;14.63;10.13;;;;;;;-3.74;79.35;99497.16;5094529;28;20115;-67
2022/02/06 04:18:15;;;;;;;18.42;11.10;;;;;;;-3.77;80.49;99489.53;5094786;28;20492;-66
2022/02/06 04:20:41;;;;;;;19.23;10.52;;;;;;;-3.63;79.83;99504.25;5094377;28;20036;-65
2022/02/06 04:23:07;;;;;;;25.67;14.48;;;;;;;-3.56;79.18;99506.31;5094277;28;20089;-67
2022/02/06 04:25:33;;;;;;;19.40;11.63;;;;;;;-3.66;78.80;99473.22;5094149;28;20052;-68
2022/02/06 04:27:59;;;;;;;16.07;11.20;;;;;;;-3.39;78.60;99507.78;5094300;28;20188;-63
2022/02/06 04:30:24;;;;;;;16.77;10.50;;;;;;;-3.47;78.98;99489.22;5094231;28;20440;-64
2022/02/06 04:32:53;;;;;;;16.50;11.23;;;;;;;-3.51;78.58;99488.63;5094773;28;20573;-65
2022/02/06 04:35:27;;;;;;;16.92;10.65;;;;;;;-3.44;79.36;99505.50;5094093;28;20043;-67
2022/02/06 05:18:35;;;;;;;11.43;7.90;;;;;;;-3.39;79.48;99478.31;5073616;28;20571;-68
2022/02/06 05:29:54;;;;;;;20.30;12.40;;;;;;;-3.40;79.39;99479.25;5092823;28;20078;-64
2022/02/06 05:32:32;;;;;;;11.82;8.60;;;;;;;-3.36;79.84;99483.31;5091793;28;20047;-65
2022/02/06 05:35:25;;;;;;;17.17;11.38;;;;;;;-3.33;79.72;99494.34;5092995;28;20469;-64
2022/02/06 05:37:51;;;;;;;18.92;11.68;;;;;;;-3.29;79.30;99494.97;5092800;28;20040;-64
2022/02/06 05:40:16;;;;;;;17.90;12.23;;;;;;;-3.32;79.16;99498.59;5092668;28;20080;-67
2022/02/06 05:42:43;;;;;;;21.73;11.67;;;;;;;-3.22;79.26;99497.03;5092728;28;20077;-64
2022/02/06 05:45:09;;;;;;;16.48;10.88;;;;;;;-3.33;79.17;99491.75;5092428;28;20043;-65
2022/02/06 05:47:35;;;;;;;16.60;11.05;;;;;;;-3.30;79.54;99494.13;5092343;28;20051;-65
2022/02/06 05:50:01;;;;;;;19.03;11.57;;;;;;;-3.31;79.51;99491.63;5092518;28;20036;-66
2022/02/06 05:52:28;;;;;;;18.38;10.93;;;;;;;-3.27;79.45;99503.50;5092686;28;20382;-64
2022/02/06 05:54:54;;;;;;;26.27;11.53;;;;;;;-3.38;80.07;99482.59;5092368;28;20068;-66
2022/02/06 05:57:19;;;;;;;26.33;12.47;;;;;;;-3.29;79.91;99490.59;5092566;28;20043;-66
2022/02/06 05:59:45;;;;;;;18.20;11.77;;;;;;;-3.23;79.42;99502.34;5074057;28;20036;-66
2022/02/06 06:02:10;;;;;;;14.47;11.30;;;;;;;-3.30;79.52;99498.50;5092231;28;20505;-65
2022/02/06 06:04:36;;;;;;;18.00;10.23;;;;;;;-3.18;79.35;99505.44;5092054;28;20039;-68
2022/02/06 06:07:03;;;;;;;18.75;10.70;;;;;;;-3.17;79.42;99521.00;5092025;28;20495;-68
2022/02/06 06:10:24;;;;;;;19.48;10.35;;;;;;;-3.18;79.73;99521.94;5093566;28;20047;-68
2022/02/06 06:12:50;;;;;;;23.40;11.55;;;;;;;-3.15;80.17;99506.09;5099974;28;20081;-74
2022/02/06 06:15:19;;;;;;;16.63;10.27;;;;;;;-3.07;80.46;99507.34;5071454;28;20049;-72
2022/02/06 06:17:46;;;;;;;14.95;10.57;;;;;;;-2.97;79.74;99522.19;5075677;28;20045;-72
2022/02/06 06:20:15;;;;;;;16.25;10.00;;;;;;;-2.93;79.49;99525.41;5092633;28;20040;-72
2022/02/06 06:22:41;;;;;;;19.02;10.77;;;;;;;-2.93;79.46;99508.00;5092377;28;20042;-73
2022/02/06 06:25:07;;;;;;;17.93;11.10;;;;;;;-2.96;79.59;99507.41;5092111;28;20063;-69
2022/02/06 06:27:33;;;;;;;14.63;10.40;;;;;;;-2.94;79.69;99503.75;5089696;28;20085;-76
2022/02/06 06:29:59;;;;;;;20.83;11.60;;;;;;;-2.91;79.25;99513.94;5091859;28;20059;-74
2022/02/06 06:32:25;;;;;;;18.07;10.37;;;;;;;-2.86;78.98;99511.88;5068258;28;20483;-72
2022/02/06 06:34:52;;;;;;;14.15;10.82;;;;;;;-2.89;79.59;99493.84;5072154;28;20455;-67
2022/02/06 06:37:19;;;;;;;18.35;10.43;;;;;;;-2.84;79.13;99494.34;5051211;28;20110;-70
2022/02/06 06:39:46;;;;;;;16.42;10.85;;;;;;;-2.67;78.66;99500.13;5050051;28;20101;-68
2022/02/06 06:42:12;;;;;;;15.73;9.73;;;;;;;-2.57;78.48;99501.16;5067848;28;20044;-67
2022/02/06 06:44:38;;;;;;;17.88;10.80;;;;;;;-2.57;78.64;99494.16;5043641;28;20071;-70
2022/02/06 06:47:05;;;;;;;19.37;10.83;;;;;;;-2.61;79.02;99497.06;5070921;28;20080;-69
2022/02/06 06:49:31;;;;;;;15.82;9.75;;;;;;;-2.64;78.67;99492.91;5060106;28;20291;-70
2022/02/06 06:51:58;;;;;;;16.42;10.30;;;;;;;-2.73;78.63;99464.91;5071299;28;20036;-71
2022/02/06 06:54:24;;;;;;;17.83;10.38;;;;;;;-2.49;78.42;99491.00;5073117;28;20044;-71
2022/02/06 06:57:05;;;;;;;17.33;10.63;;;;;;;-2.44;78.54;99490.66;5035322;28;20040;-72
2022/02/06 07:02:27;;;;;;;18.10;11.50;;;;;;;-2.38;77.78;99483.22;5091649;28;20040;-78
2022/02/06 07:05:04;;;;;;;26.73;14.65;;;;;;;-2.35;78.02;99483.00;5092356;28;20032;-80
2022/02/06 07:07:33;;;;;;;17.40;11.20;;;;;;;-2.37;78.02;99497.91;5091574;28;20059;-75
2022/02/06 07:10:00;;;;;;;26.35;13.68;;;;;;;-2.52;78.61;99472.97;5091308;28;20462;-69
2022/02/06 07:12:25;;;;;;;19.83;11.02;;;;;;;-2.45;78.93;99482.00;5091079;28;20032;-72
2022/02/06 07:14:51;;;;;;;17.60;10.67;;;;;;;-2.62;78.97;99461.53;5091441;28;20032;-74
2022/02/06 07:17:17;;;;;;;15.87;10.33;;;;;;;-2.38;78.62;99477.16;5090980;28;20035;-71
2022/02/06 07:19:44;;;;;;;16.77;11.48;;;;;;;-2.48;78.39;99437.91;5091118;28;20049;-71
2022/02/06 07:22:14;;;;;;;25.58;11.43;;;;;;;-2.15;78.49;99468.50;5073030;28;20470;-73
2022/02/06 07:24:40;;;;;;;20.95;12.20;;;;;;;-2.05;77.83;99481.69;5073344;28;20081;-74
2022/02/06 07:29:44;;;;;;;34.80;18.08;;;;;;;-2.00;77.53;99466.53;5081181;28;20196;-70
2022/02/06 07:32:10;;;;;;;23.43;11.93;;;;;;;-1.95;77.18;99470.47;5063644;28;20055;-71
2022/02/06 07:34:38;;;;;;;22.27;12.95;;;;;;;-1.89;77.66;99483.03;5077123;28;20036;-70
2022/02/06 07:37:04;;;;;;;25.90;15.05;;;;;;;-1.98;77.19;99460.25;5077115;28;20044;-71
2022/02/06 07:39:29;;;;;;;18.77;11.67;;;;;;;-1.91;76.93;99469.28;5094966;28;20448;-71
2022/02/06 07:41:55;;;;;;;21.00;11.97;;;;;;;-1.87;77.82;99469.88;5094853;28;20265;-70
2022/02/06 07:44:20;;;;;;;21.77;13.13;;;;;;;-1.92;77.68;99445.91;5095279;28;20580;-76
2022/02/06 07:46:48;;;;;;;20.53;11.83;;;;;;;-1.75;77.35;99453.28;5095282;28;20036;-71
2022/02/06 07:49:15;;;;;;;59.53;24.70;;;;;;;-1.71;77.02;99440.84;5094897;28;20044;-72
2022/02/06 07:51:42;;;;;;;25.92;14.30;;;;;;;-1.65;76.41;99435.16;5095495;28;20055;-70
2022/02/06 07:54:07;;;;;;;22.92;13.30;;;;;;;-1.74;76.71;99417.56;5094583;28;20454;-70
2022/02/06 07:56:34;;;;;;;31.37;14.93;;;;;;;-1.48;76.50;99439.06;5094380;28;20036;-76
2022/02/06 07:59:00;;;;;;;20.35;12.07;;;;;;;-1.41;76.49;99450.72;5094248;28;20032;-73
2022/02/06 08:01:26;;;;;;;24.40;14.63;;;;;;;-1.94;76.63;99351.28;5094572;28;20410;-76
2022/02/06 08:03:52;;;;;;;19.30;12.57;;;;;;;-1.29;76.18;99442.75;5095122;28;20028;-75
2022/02/06 08:06:17;;;;;;;21.30;12.10;;;;;;;-1.41;76.19;99435.06;5076560;28;20028;-72
2022/02/06 08:08:43;;;;;;;20.73;10.10;;;;;;;-1.33;76.15;99437.91;5094763;28;20379;-73
2022/02/06 08:11:13;;;;;;;19.70;12.53;;;;;;;-1.27;76.37;99434.78;5099314;28;20039;-73
2022/02/06 08:13:42;;;;;;;22.80;12.40;;;;;;;-1.16;75.92;99439.16;5074326;28;20036;-70
2022/02/06 08:16:08;;;;;;;19.43;10.23;;;;;;;-1.21;76.02;99431.69;5076052;28;20280;-68
2022/02/06 08:18:37;;;;;;;17.30;11.47;;;;;;;-1.11;75.89;99442.28;5093578;28;20277;-68
2022/02/06 08:21:06;;;;;;;21.33;12.25;;;;;;;-1.17;76.51;99432.28;5093569;28;20274;-70
2022/02/06 08:23:32;;;;;;;21.47;10.43;;;;;;;-1.04;76.17;99443.44;5075756;28;20086;-69
2022/02/06 08:25:58;;;;;;;30.73;13.70;;;;;;;-0.99;76.06;99436.06;5093418;28;20255;-73
2022/02/06 08:28:23;;;;;;;24.57;13.07;;;;;;;-0.94;75.97;99421.69;5093304;28;20483;-70
2022/02/06 08:30:49;;;;;;;24.67;13.03;;;;;;;-0.78;75.80;99436.16;5075234;28;20466;-71
2022/02/06 08:33:16;;;;;;;33.17;13.67;;;;;;;-1.54;75.94;99329.91;5081846;28;20110;-72
2022/02/06 08:35:42;;;;;;;30.43;12.90;;;;;;;-0.70;75.80;99447.66;5084567;28;20082;-71
2022/02/06 08:38:10;;;;;;;20.50;12.17;;;;;;;-0.61;76.00;99446.06;5072026;28;20307;-74
2022/02/06 08:40:36;;;;;;;32.47;12.30;;;;;;;-0.77;75.41;99393.38;5071969;28;20047;-76
2022/02/06 08:43:09;;;;;;;18.00;11.47;;;;;;;-0.49;74.99;99436.41;5075503;28;20259;-77
2022/02/06 08:45:35;;;;;;;20.80;11.37;;;;;;;-0.55;75.70;99444.78;5055360;28;20039;-76
2022/02/06 08:48:01;;;;;;;16.63;9.57;;;;;;;-0.54;75.91;99449.88;5073495;28;20274;-75
2022/02/06 08:50:29;;;;;;;21.63;11.77;;;;;;;-0.49;75.50;99439.88;5073488;28;20665;-75
2022/02/06 08:52:58;;;;;;;20.98;11.27;;;;;;;-0.65;75.34;99403.66;5063631;28;20051;-71
2022/02/06 08:55:24;;;;;;;;;;;;;;;-0.39;75.30;99437.31;5041360;28;20036;-68
2022/02/06 08:57:50;;;;;;;33.87;13.20;;;;;;;-0.34;75.24;99433.38;5092588;28;20295;-70
2022/02/06 09:00:19;;;;;;;24.20;12.20;;;;;;;-0.33;75.39;99416.72;5092486;28;20240;-71
2022/02/06 09:02:45;;;;;;;31.13;12.33;;;;;;;-0.45;75.07;99407.28;5058203;28;20765;-70
2022/02/06 09:05:12;;;;;;;27.77;13.00;;;;;;;-0.28;75.16;99426.81;5092789;28;20262;-71
2022/02/06 09:07:42;;;;;;;27.47;13.63;;;;;;;-0.24;75.32;99422.16;5093658;28;20353;-72
2022/02/06 09:10:10;;;;;;;21.60;12.40;;;;;;;-0.28;74.70;99410.31;5093527;28;20294;-71
2022/02/06 09:12:42;;;;;;;19.77;11.48;;;;;;;-0.01;75.01;99418.44;5094565;28;20794;-69
2022/02/06 09:15:07;;;;;;;22.50;10.73;;;;;;;0.17;73.98;99406.44;5095417;28;20520;-70
2022/02/06 09:17:33;;;;;;;21.13;10.17;;;;;;;0.20;73.20;99403.56;5097456;28;20368;-73
2022/02/06 09:19:58;;;;;;;30.20;11.93;;;;;;;-0.27;74.11;99386.63;5078139;28;20085;-68
2022/02/06 09:22:24;;;;;;;84.63;15.80;;;;;;;-0.51;75.33;99401.72;5096806;28;20114;-73
2022/02/06 09:24:49;;;;;;;27.07;10.70;;;;;;;-0.51;75.75;99410.41;5097502;28;20064;-69
2022/02/06 09:27:15;;;;;;;22.87;9.77;;;;;;;-0.36;75.43;99409.13;5096457;28;20036;-77
2022/02/06 09:29:42;;;;;;;27.23;12.20;;;;;;;-0.26;75.02;99393.50;5066454;28;20043;-73
2022/02/06 09:37:34;;;;;;;21.02;8.20;;;;;;;0.03;74.62;99398.94;5095859;28;20293;-68
2022/02/06 09:40:00;;;;;;;25.35;10.07;;;;;;;0.04;74.81;99390.13;5096465;28;20059;-70
2022/02/06 09:42:27;;;;;;;24.63;10.43;;;;;;;-0.05;74.32;99359.47;5078836;28;20482;-73
2022/02/06 09:44:53;;;;;;;18.33;10.43;;;;;;;0.10;74.71;99373.91;5079378;28;20058;-75
2022/02/06 09:47:25;;;;;;;49.60;12.30;;;;;;;0.17;74.02;99369.78;5095962;28;20262;-73
2022/02/06 09:49:51;;;;;;;22.37;9.67;;;;;;;0.24;74.28;99375.31;5093346;28;20294;-77
2022/02/06 09:52:25;;;;;;;35.63;11.80;;;;;;;0.17;74.04;99375.03;5092965;28;20262;-70
2022/02/06 09:54:52;;;;;;;45.77;13.23;;;;;;;0.17;74.67;99385.50;5074276;28;20262;-68
2022/02/06 09:57:28;;;;;;;28.47;12.93;;;;;;;0.18;74.51;99379.31;5092207;28;20803;-69
2022/02/06 09:59:55;;;;;;;21.60;11.70;;;;;;;0.10;74.21;99378.31;5057334;28;20274;-68
2022/02/06 10:02:25;;;;;;;23.53;11.60;;;;;;;0.17;74.46;99361.09;5092156;28;20277;-66
2022/02/06 10:04:53;;;;;;;46.63;12.77;;;;;;;0.31;73.75;99373.88;5091909;28;20272;-69
2022/02/06 10:07:32;;;;;;;34.42;12.88;;;;;;;0.20;74.56;99348.56;5091928;28;20270;-68
2022/02/06 10:10:00;;;;;;;;;;;;;;;0.39;74.11;99367.97;5092018;28;20415;-69
2022/02/06 10:12:27;;;;;;;;;;;;;;;0.27;74.27;99370.66;5092049;28;19942;-68
2022/02/06 10:14:53;;;;;;;;;;;;;;;0.28;74.35;99361.84;5090341;28;20291;-68
2022/02/06 10:17:23;;;;;;;;;;;;;;;0.44;74.40;99365.78;5090604;28;20279;-69
2022/02/06 10:19:49;;;;;;;;;;;;;;;0.59;73.69;99353.97;5091001;28;19996;-72
2022/02/06 10:22:39;;;;;;;;;;;;;;;0.68;73.60;99352.34;5092617;28;19916;-70
2022/02/06 10:25:06;;;;;;;;;;;;;;;0.76;73.47;99345.47;5092564;28;19923;-72
2022/02/06 10:27:53;;;;;;;;;;;;;;;0.70;73.02;99355.66;5092915;28;19916;-71
2022/02/06 10:30:39;;;;;;;;;;;;;;;0.68;73.26;99350.56;5093184;28;19923;-71
2022/02/06 10:33:07;;;;;;;;;;;;;;;0.61;73.74;99342.41;5103038;28;20301;-71
2022/02/06 10:35:36;;;;;;;;;;;;;;;0.63;73.77;99334.41;5112425;28;19950;-71
2022/02/06 10:38:12;;;;;;;;;;;;;;;0.70;73.57;99335.53;5112683;28;20019;-74
2022/02/06 10:40:37;;;;;;;;;;;;;;;0.80;73.31;99340.78;5112734;28;20068;-75
2022/02/06 10:43:08;;;;;;;;;;;;;;;0.89;73.20;99335.56;5112553;28;19981;-77
2022/02/06 10:45:37;;;;;;;;;;;;;;;0.90;72.91;99331.97;5094411;28;19916;-72
2022/02/06 10:48:03;;;;;;;;;;;;;;;0.85;72.51;99339.41;5094361;28;20412;-69
2022/02/06 10:50:30;;;;;;;;;;;;;;;0.73;72.86;99335.25;5113304;28;19955;-67
2022/02/06 10:53:06;;;;;;;;;;;;;;;0.73;73.52;99329.19;5112701;28;20382;-68
2022/02/06 10:55:31;;;;;;;;;;;;;;;0.72;73.51;99333.59;5112594;28;19947;-68
2022/02/06 10:57:58;;;;;;;;;;;;;;;0.70;73.60;99321.59;5113525;28;19916;-68
2022/02/06 11:00:30;;;;;;;;;;;;;;;0.67;73.92;99327.94;5112770;28;19924;-70
2022/02/06 11:03:05;;;;;;;;;;;;;;;0.63;74.08;99321.31;5117007;28;19926;-68
2022/02/06 11:05:54;;;;;;;;;;;;;;;0.52;74.53;99317.00;5116692;28;19926;-68
2022/02/06 11:08:24;;;;;;;;;;;;;;;0.47;74.75;99315.75;5116742;28;20013;-70
2022/02/06 11:10:54;;;;;;;;;;;;;;;0.45;74.71;99309.81;5116591;28;19915;-69
2022/02/06 11:13:45;;;;;;;;;;;;;;;0.51;74.70;99304.03;5117457;28;19926;-68
2022/02/06 11:16:15;;;;;;;;;;;;;;;0.58;74.55;99311.25;5116427;28;19972;-67
2022/02/06 11:18:51;;;;;;;;;;;;;;;0.61;74.96;99307.53;5116615;28;20305;-69
2022/02/06 11:21:18;;;;;;;;;;;;;;;0.60;74.96;99309.31;5116930;28;19915;-69
2022/02/06 11:23:45;;;;;;;;;;;;;;;0.64;75.07;99294.16;5117684;28;19922;-71
2022/02/06 11:26:12;;;;;;;;;;;;;;;0.71;74.62;99290.00;5100490;28;20419;-70
2022/02/06 11:28:38;;;;;;;;;;;;;;;0.71;74.71;99284.78;5098581;28;19915;-69
2022/02/06 11:31:04;;;;;;;;;;;;;;;0.60;75.20;99279.66;5117618;28;19926;-69
2022/02/06 11:33:30;;;;;;;;;;;;;;;0.67;75.29;99272.09;5100432;28;19920;-68
2022/02/06 11:36:01;;;;;;;;;;;;;;;0.59;75.18;99262.28;5116104;28;20312;-69
2022/02/06 11:44:10;;;;;;;;;;;;;;;0.29;76.49;99277.13;5120619;28;20293;-70
2022/02/06 11:46:35;;;;;;;;;;;;;;;0.38;76.17;99272.03;5118324;28;20393;-66
2022/02/06 11:49:09;;;;;;;;;;;;;;;0.41;75.95;99269.97;5118525;28;19915;-70
2022/02/06 11:51:34;;;;;;;;;;;;;;;0.37;75.95;99276.44;5117542;28;19915;-68
2022/02/06 11:54:18;;;;;;;;;;;;;;;0.40;76.34;99272.72;5119376;28;20275;-72
2022/02/06 11:56:43;;;;;;;;;;;;;;;0.44;76.44;99276.72;5116405;28;20289;-67
2022/02/06 11:59:13;;;;;;;;;;;;;;;0.43;75.98;99277.69;5118389;28;19915;-72
2022/02/06 12:01:41;;;;;;;;;;;;;;;0.36;75.59;99271.34;5100642;28;20007;-67
2022/02/06 12:04:06;;;;;;;;;;;;;;;0.33;75.83;99269.00;5116478;28;20021;-64
2022/02/06 12:06:47;;;;;;;;;;;;;;;0.32;76.33;99269.94;5115332;28;20023;-67
2022/02/06 12:09:13;;;;;;;;;;;;;;;0.30;76.01;99276.16;5096706;28;19916;-66
2022/02/06 12:11:39;;;;;;;;;;;;;;;0.27;76.61;99265.91;5115037;28;20291;-68
2022/02/06 12:14:07;;;;;;;;;;;;;;;0.22;76.85;99257.63;5115318;28;19926;-64
2022/02/06 12:16:39;;;;;;;;;;;;;;;0.13;77.31;99255.81;5115130;28;20271;-64
2022/02/06 12:19:24;;;;;;;;;;;;;;;0.06;77.30;99259.13;5096838;28;19915;-65
2022/02/06 12:21:49;;;;;;;;;;;;;;;0.02;78.07;99255.94;5114760;28;20338;-65
2022/02/06 12:24:35;;;;;;;;;;;;;;;0.05;77.71;99244.38;5115060;28;19931;-66
2022/02/06 12:27:19;;;;;;;;;;;;;;;0.14;78.36;99233.94;5114696;28;20378;-64
2022/02/06 12:29:50;;;;;;;;;;;;;;;0.34;77.23;99224.34;5114120;28;20342;-64
2022/02/06 12:32:35;;;;;;;;;;;;;;;0.37;77.59;99237.16;5095529;28;20487;-65
2022/02/06 12:37:54;;;;;;;;;;;;;;;0.23;76.92;99234.91;5114956;28;20006;-66
2022/02/06 12:40:21;;;;;;;;;;;;;;;0.12;77.42;99229.78;5114897;28;20370;-65
2022/02/06 12:42:48;;;;;;;;;;;;;;;0.06;77.78;99231.16;5114720;28;19975;-66
2022/02/06 12:45:15;;;;;;;;;;;;;;;-0.04;78.28;99228.47;5114919;28;20258;-65
2022/02/06 12:47:51;;;;;;;;;;;;;;;-0.02;78.50;99236.19;5114546;28;19922;-65
2022/02/06 12:50:18;;;;;;;;;;;;;;;-0.05;78.62;99223.38;5114300;28;19966;-68
2022/02/06 12:52:44;;;;;;;;;;;;;;;0.00;78.81;99210.75;5096437;28;19919;-65
2022/02/06 12:55:10;;;;;;;;;;;;;;;0.01;79.10;99215.03;5096390;28;19916;-64
2022/02/06 12:57:44;;;;;;;;;;;;;;;0.06;78.62;99222.47;5114512;28;19922;-63
2022/02/06 13:00:23;;;;;;;;;;;;;;;0.08;78.58;99218.75;5114580;28;20018;-65
2022/02/06 13:02:48;;;;;;;;;;;;;;;0.16;78.18;99225.94;5114617;28;19922;-64
2022/02/06 13:05:14;;;;;;;;;;;;;;;0.03;78.78;99231.41;5114285;28;19919;-69
2022/02/06 13:07:44;;;;;;;;;;;;;;;0.01;79.06;99232.53;5114471;28;19959;-68
2022/02/06 13:10:10;;;;;;;;;;;;;;;-0.03;79.42;99229.31;5114422;28;19916;-64
2022/02/06 13:12:45;;;;;;;;;;;;;;;-0.09;79.64;99238.53;5113901;28;19955;-67
2022/02/06 13:22:53;;;;;;;;;;;;;;;-0.18;80.23;99217.56;5113693;28;19923;-63
2022/02/06 13:30:47;;;;;;;;;;;;;;;-0.19;80.62;99208.06;5114037;28;20378;-64
2022/02/06 13:33:57;;;;;;;;;;;;;;;-0.12;80.43;99196.91;5114246;28;19926;-66
2022/02/06 13:39:11;;;;;;;;;;;;;;;0.00;79.92;99200.28;5114528;28;19923;-66
2022/02/06 13:41:37;;;;;;;;;;;;;;;0.02;79.79;99206.22;5095870;28;20301;-65
2022/02/06 13:44:04;;;;;;;;;;;;;;;-0.01;79.73;99201.22;5078662;28;19915;-66
2022/02/06 13:46:33;;;;;;;;;;;;;;;-0.04;79.83;99188.41;5114396;28;20355;-65
2022/02/06 13:48:59;;;;;;;;;;;;;;;-0.07;80.32;99172.97;5114299;28;20386;-64
2022/02/06 13:51:26;;;;;;;;;;;;;;;-0.21;80.81;99181.19;5114380;28;19919;-65
2022/02/06 13:54:00;;;;;;;;;;;;;;;-0.16;80.05;99171.16;5095467;28;19916;-64
2022/02/06 13:56:25;;;;;;;;;;;;;;;-0.10;80.35;99162.78;5114071;28;19934;-64
2022/02/06 13:59:22;;;;;;;;;;;;;;;-0.16;80.71;99168.53;5113340;28;19915;-64
2022/02/06 14:01:51;;;;;;;;;;;;;;;-0.13;80.32;99156.03;5113339;28;19922;-71
2022/02/06 14:04:37;;;;;;;;;;;;;;;-0.11;80.81;99153.25;5113836;28;19916;-69
2022/02/06 14:07:08;;;;;;;;;;;;;;;-0.12;80.81;99154.22;5113649;28;19923;-68
2022/02/06 14:09:47;;;;;;;;;;;;;;;-0.09;80.42;99149.56;5113295;28;19916;-70
2022/02/06 14:12:23;;;;;;;;;;;;;;;-0.09;80.87;99161.81;5077680;28;19922;-68
2022/02/06 14:14:59;;;;;;;;;;;;;;;-0.04;80.61;99157.00;5113377;28;19916;-68
2022/02/06 14:17:52;;;;;;;;;;;;;;;-0.07;80.98;99136.34;5113693;28;19927;-69
2022/02/06 14:20:19;;;;;;;;;;;;;;;-0.10;81.54;99141.84;5094775;28;19931;-67
2022/02/06 14:22:49;;;;;;;;;;;;;;;-0.07;81.13;99136.34;5095126;28;19927;-69
2022/02/06 14:25:39;;;;;;;;;;;;;;;-0.12;81.04;99133.28;5095084;28;19923;-70
2022/02/06 14:28:26;;;;;;;;;;;;;;;-0.14;81.31;99130.81;5113819;28;20013;-76
2022/02/06 14:30:52;;;;;;;;;;;;;;;-0.16;81.80;99131.91;5113606;28;19916;-77
2022/02/06 14:33:23;;;;;;;;;;;;;;;-0.12;81.95;99117.59;5094882;28;19970;-75
2022/02/06 14:35:57;;;;;;;;;;;;;;;-0.10;81.91;99102.59;5112210;28;19959;-71
2022/02/06 14:38:39;;;;;;;;;;;;;;;-0.09;81.83;99118.16;5078536;28;19922;-65
2022/02/06 14:44:00;;;;;;;;;;;;;;;-0.10;81.81;99110.44;5113964;28;19922;-73
2022/02/06 14:46:30;;;;;;;;;;;;;;;-0.14;82.35;99099.41;5114420;28;19922;-70
2022/02/06 14:48:55;;;;;;;;;;;;;;;-0.13;82.22;99115.94;5114611;28;19916;-76